sensor_id;sensor_type;location;lat;lon;timestamp;P1;durP1;ratioP1;P2;durP2;ratioP2
77016;SDS011;65949;53.132;17.930;2023-09-30T00:02:20;17.70;;;10.70;;
77016;SDS011;65949;53.132;17.930;2023-09-30T00:04:46;20.10;;;11.50;;
77016;SDS011;65949;53.132;17.930;2023-09-30T00:07:13;17.80;;;10.90;;
77016;SDS011;65949;53.132;17.930;2023-09-30T00:09:40;17.00;;;11.80;;
77016;SDS011;65949;53.132;17.930;2023-09-30T00:12:07;15.90;;;11.20;;
77016;SDS011;65949;53.132;17.930;2023-09-30T00:14:33;20.20;;;11.60;;
77016;SDS011;65949;53.132;17.930;2023-09-30T00:17:00;17.50;;;11.80;;
77016;SDS011;65949;53.132;17.930;2023-09-30T00:19:27;16.50;;;11.80;;
77016;SDS011;65949;53.132;17.930;2023-09-30T00:21:53;19.10;;;11.00;;
77016;SDS011;65949;53.132;17.930;2023-09-30T00:24:20;18.50;;;10.60;;
77016;SDS011;65949;53.132;17.930;2023-09-30T00:26:47;15.70;;;10.70;;
77016;SDS011;65949;53.132;17.930;2023-09-30T00:29:13;17.40;;;11.30;;
77016;SDS011;65949;53.132;17.930;2023-09-30T00:31:41;19.50;;;11.10;;
77016;SDS011;65949;53.132;17.930;2023-09-30T00:34:07;16.50;;;10.20;;
77016;SDS011;65949;53.132;17.930;2023-09-30T00:36:35;16.80;;;10.60;;
77016;SDS011;65949;53.132;17.930;2023-09-30T00:39:01;15.70;;;10.20;;
77016;SDS011;65949;53.132;17.930;2023-09-30T00:41:28;16.10;;;10.30;;
77016;SDS011;65949;53.132;17.930;2023-09-30T00:43:55;15.90;;;10.80;;
77016;SDS011;65949;53.132;17.930;2023-09-30T00:46:26;16.30;;;10.30;;
77016;SDS011;65949;53.132;17.930;2023-09-30T00:48:56;16.30;;;11.40;;
77016;SDS011;65949;53.132;17.930;2023-09-30T00:51:25;17.30;;;10.40;;
77016;SDS011;65949;53.132;17.930;2023-09-30T00:53:52;16.90;;;10.30;;
77016;SDS011;65949;53.132;17.930;2023-09-30T00:56:21;14.40;;;10.40;;
77016;SDS011;65949;53.132;17.930;2023-09-30T00:58:49;15.10;;;10.00;;
77016;SDS011;65949;53.132;17.930;2023-09-30T01:01:20;16.70;;;10.50;;
77016;SDS011;65949;53.132;17.930;2023-09-30T01:03:47;16.00;;;10.60;;
77016;SDS011;65949;53.132;17.930;2023-09-30T01:06:13;14.30;;;9.90;;
77016;SDS011;65949;53.132;17.930;2023-09-30T01:08:40;15.20;;;9.90;;
77016;SDS011;65949;53.132;17.930;2023-09-30T01:11:08;13.80;;;9.70;;
77016;SDS011;65949;53.132;17.930;2023-09-30T01:13:37;14.20;;;10.10;;
77016;SDS011;65949;53.132;17.930;2023-09-30T01:16:04;16.80;;;10.70;;
77016;SDS011;65949;53.132;17.930;2023-09-30T01:18:32;14.00;;;9.80;;
77016;SDS011;65949;53.132;17.930;2023-09-30T01:21:01;14.10;;;10.00;;
77016;SDS011;65949;53.132;17.930;2023-09-30T01:23:33;15.70;;;10.00;;
77016;SDS011;65949;53.132;17.930;2023-09-30T01:26:08;18.70;;;10.20;;
77016;SDS011;65949;53.132;17.930;2023-09-30T01:28:38;20.10;;;11.50;;
77016;SDS011;65949;53.132;17.930;2023-09-30T01:31:06;15.90;;;11.80;;
77016;SDS011;65949;53.132;17.930;2023-09-30T01:33:35;17.40;;;12.40;;
77016;SDS011;65949;53.132;17.930;2023-09-30T01:36:03;16.80;;;11.50;;
77016;SDS011;65949;53.132;17.930;2023-09-30T01:38:30;18.10;;;12.40;;
77016;SDS011;65949;53.132;17.930;2023-09-30T01:40:57;18.70;;;12.40;;
77016;SDS011;65949;53.132;17.930;2023-09-30T01:43:23;19.30;;;12.50;;
77016;SDS011;65949;53.132;17.930;2023-09-30T01:45:50;17.10;;;12.20;;
77016;SDS011;65949;53.132;17.930;2023-09-30T01:48:18;19.40;;;13.10;;
77016;SDS011;65949;53.132;17.930;2023-09-30T01:50:44;18.70;;;12.30;;
77016;SDS011;65949;53.132;17.930;2023-09-30T01:53:11;18.70;;;12.40;;
77016;SDS011;65949;53.132;17.930;2023-09-30T01:55:37;21.00;;;14.00;;
77016;SDS011;65949;53.132;17.930;2023-09-30T01:58:04;19.40;;;13.20;;
77016;SDS011;65949;53.132;17.930;2023-09-30T02:00:31;19.40;;;13.30;;
77016;SDS011;65949;53.132;17.930;2023-09-30T02:02:58;17.80;;;12.90;;
77016;SDS011;65949;53.132;17.930;2023-09-30T02:05:24;19.40;;;12.90;;
77016;SDS011;65949;53.132;17.930;2023-09-30T02:07:51;17.50;;;12.60;;
77016;SDS011;65949;53.132;17.930;2023-09-30T02:10:18;19.40;;;14.20;;
77016;SDS011;65949;53.132;17.930;2023-09-30T02:12:45;21.10;;;13.40;;
77016;SDS011;65949;53.132;17.930;2023-09-30T02:15:13;20.40;;;14.50;;
77016;SDS011;65949;53.132;17.930;2023-09-30T02:17:40;19.90;;;14.30;;
77016;SDS011;65949;53.132;17.930;2023-09-30T02:20:12;19.50;;;13.80;;
77016;SDS011;65949;53.132;17.930;2023-09-30T02:22:42;19.90;;;13.70;;
77016;SDS011;65949;53.132;17.930;2023-09-30T02:25:10;18.70;;;13.50;;
77016;SDS011;65949;53.132;17.930;2023-09-30T02:27:39;20.30;;;13.30;;
77016;SDS011;65949;53.132;17.930;2023-09-30T02:30:08;21.10;;;12.60;;
77016;SDS011;65949;53.132;17.930;2023-09-30T02:32:38;17.70;;;13.20;;
77016;SDS011;65949;53.132;17.930;2023-09-30T02:35:06;22.90;;;14.10;;
77016;SDS011;65949;53.132;17.930;2023-09-30T02:37:34;19.90;;;13.50;;
77016;SDS011;65949;53.132;17.930;2023-09-30T02:40:04;21.40;;;13.30;;
77016;SDS011;65949;53.132;17.930;2023-09-30T02:42:36;20.80;;;13.60;;
77016;SDS011;65949;53.132;17.930;2023-09-30T02:45:04;18.00;;;13.70;;
77016;SDS011;65949;53.132;17.930;2023-09-30T02:47:32;21.70;;;14.30;;
77016;SDS011;65949;53.132;17.930;2023-09-30T02:49:59;19.80;;;13.40;;
77016;SDS011;65949;53.132;17.930;2023-09-30T02:52:27;20.90;;;14.90;;
77016;SDS011;65949;53.132;17.930;2023-09-30T02:54:55;20.10;;;14.10;;
77016;SDS011;65949;53.132;17.930;2023-09-30T02:57:23;22.60;;;14.60;;
77016;SDS011;65949;53.132;17.930;2023-09-30T02:59:51;20.40;;;14.70;;
77016;SDS011;65949;53.132;17.930;2023-09-30T03:02:20;21.70;;;16.30;;
77016;SDS011;65949;53.132;17.930;2023-09-30T03:04:49;21.70;;;14.30;;
77016;SDS011;65949;53.132;17.930;2023-09-30T03:07:20;22.80;;;16.10;;
77016;SDS011;65949;53.132;17.930;2023-09-30T03:09:47;22.60;;;16.00;;
77016;SDS011;65949;53.132;17.930;2023-09-30T03:12:14;22.50;;;15.10;;
77016;SDS011;65949;53.132;17.930;2023-09-30T03:14:40;23.20;;;15.10;;
77016;SDS011;65949;53.132;17.930;2023-09-30T03:17:07;22.10;;;14.90;;
77016;SDS011;65949;53.132;17.930;2023-09-30T03:19:38;21.50;;;15.20;;
77016;SDS011;65949;53.132;17.930;2023-09-30T03:22:05;22.10;;;16.10;;
77016;SDS011;65949;53.132;17.930;2023-09-30T03:24:40;22.40;;;14.70;;
77016;SDS011;65949;53.132;17.930;2023-09-30T03:27:07;22.50;;;15.50;;
77016;SDS011;65949;53.132;17.930;2023-09-30T03:29:37;19.50;;;14.40;;
77016;SDS011;65949;53.132;17.930;2023-09-30T03:32:04;18.70;;;12.80;;
77016;SDS011;65949;53.132;17.930;2023-09-30T03:34:31;18.20;;;13.60;;
77016;SDS011;65949;53.132;17.930;2023-09-30T03:36:57;20.20;;;14.40;;
77016;SDS011;65949;53.132;17.930;2023-09-30T03:39:25;18.20;;;12.70;;
77016;SDS011;65949;53.132;17.930;2023-09-30T03:41:56;18.20;;;12.60;;
77016;SDS011;65949;53.132;17.930;2023-09-30T03:44:25;17.40;;;11.90;;
77016;SDS011;65949;53.132;17.930;2023-09-30T03:46:52;17.00;;;11.50;;
77016;SDS011;65949;53.132;17.930;2023-09-30T03:49:19;15.90;;;10.80;;
77016;SDS011;65949;53.132;17.930;2023-09-30T03:51:48;12.70;;;7.40;;
77016;SDS011;65949;53.132;17.930;2023-09-30T03:54:17;9.90;;;4.90;;
77016;SDS011;65949;53.132;17.930;2023-09-30T03:56:44;8.60;;;4.00;;
77016;SDS011;65949;53.132;17.930;2023-09-30T03:59:12;6.60;;;3.20;;
77016;SDS011;65949;53.132;17.930;2023-09-30T04:01:39;7.90;;;3.60;;
77016;SDS011;65949;53.132;17.930;2023-09-30T04:04:06;7.20;;;2.60;;
77016;SDS011;65949;53.132;17.930;2023-09-30T04:06:36;6.80;;;2.60;;
77016;SDS011;65949;53.132;17.930;2023-09-30T04:09:05;6.70;;;1.90;;
77016;SDS011;65949;53.132;17.930;2023-09-30T04:11:36;4.90;;;1.50;;
77016;SDS011;65949;53.132;17.930;2023-09-30T04:14:06;6.30;;;2.10;;
77016;SDS011;65949;53.132;17.930;2023-09-30T04:16:34;7.20;;;1.90;;
77016;SDS011;65949;53.132;17.930;2023-09-30T04:19:03;6.60;;;1.50;;
77016;SDS011;65949;53.132;17.930;2023-09-30T04:21:31;6.50;;;1.70;;
77016;SDS011;65949;53.132;17.930;2023-09-30T04:24:00;7.00;;;1.90;;
77016;SDS011;65949;53.132;17.930;2023-09-30T04:26:27;6.30;;;1.40;;
77016;SDS011;65949;53.132;17.930;2023-09-30T04:28:53;4.80;;;1.10;;
77016;SDS011;65949;53.132;17.930;2023-09-30T04:31:20;5.20;;;1.10;;
77016;SDS011;65949;53.132;17.930;2023-09-30T04:33:49;5.80;;;1.00;;
77016;SDS011;65949;53.132;17.930;2023-09-30T04:36:19;6.40;;;1.30;;
77016;SDS011;65949;53.132;17.930;2023-09-30T04:38:46;6.50;;;1.30;;
77016;SDS011;65949;53.132;17.930;2023-09-30T04:41:13;5.50;;;1.60;;
77016;SDS011;65949;53.132;17.930;2023-09-30T04:43:42;5.20;;;1.00;;
77016;SDS011;65949;53.132;17.930;2023-09-30T04:46:09;6.40;;;1.60;;
77016;SDS011;65949;53.132;17.930;2023-09-30T04:48:39;6.30;;;1.10;;
77016;SDS011;65949;53.132;17.930;2023-09-30T04:51:06;6.20;;;1.20;;
77016;SDS011;65949;53.132;17.930;2023-09-30T04:53:34;7.30;;;1.10;;
77016;SDS011;65949;53.132;17.930;2023-09-30T04:56:01;8.40;;;1.20;;
77016;SDS011;65949;53.132;17.930;2023-09-30T04:58:28;6.20;;;1.60;;
77016;SDS011;65949;53.132;17.930;2023-09-30T05:00:56;8.70;;;2.20;;
77016;SDS011;65949;53.132;17.930;2023-09-30T05:03:22;5.90;;;1.70;;
77016;SDS011;65949;53.132;17.930;2023-09-30T05:05:51;5.10;;;1.10;;
77016;SDS011;65949;53.132;17.930;2023-09-30T05:08:22;7.50;;;1.40;;
77016;SDS011;65949;53.132;17.930;2023-09-30T05:10:49;4.70;;;1.10;;
77016;SDS011;65949;53.132;17.930;2023-09-30T05:13:16;5.70;;;1.90;;
77016;SDS011;65949;53.132;17.930;2023-09-30T05:15:43;7.10;;;1.50;;
77016;SDS011;65949;53.132;17.930;2023-09-30T05:18:10;8.00;;;2.20;;
77016;SDS011;65949;53.132;17.930;2023-09-30T05:20:37;8.70;;;1.80;;
77016;SDS011;65949;53.132;17.930;2023-09-30T05:23:05;9.00;;;1.60;;
77016;SDS011;65949;53.132;17.930;2023-09-30T05:25:33;6.50;;;1.50;;
77016;SDS011;65949;53.132;17.930;2023-09-30T05:28:00;6.80;;;1.60;;
77016;SDS011;65949;53.132;17.930;2023-09-30T05:30:26;9.10;;;1.90;;
77016;SDS011;65949;53.132;17.930;2023-09-30T05:32:53;9.30;;;1.80;;
77016;SDS011;65949;53.132;17.930;2023-09-30T05:35:20;8.10;;;1.50;;
77016;SDS011;65949;53.132;17.930;2023-09-30T05:37:48;9.40;;;2.10;;
77016;SDS011;65949;53.132;17.930;2023-09-30T05:40:19;9.60;;;2.00;;
77016;SDS011;65949;53.132;17.930;2023-09-30T05:42:53;9.40;;;2.10;;
77016;SDS011;65949;53.132;17.930;2023-09-30T05:45:22;8.00;;;1.50;;
77016;SDS011;65949;53.132;17.930;2023-09-30T05:47:49;7.90;;;1.70;;
77016;SDS011;65949;53.132;17.930;2023-09-30T05:50:19;10.00;;;1.60;;
77016;SDS011;65949;53.132;17.930;2023-09-30T05:52:50;5.80;;;1.60;;
77016;SDS011;65949;53.132;17.930;2023-09-30T05:55:17;9.70;;;1.90;;
77016;SDS011;65949;53.132;17.930;2023-09-30T05:57:47;13.70;;;2.20;;
77016;SDS011;65949;53.132;17.930;2023-09-30T06:00:16;8.70;;;1.70;;
77016;SDS011;65949;53.132;17.930;2023-09-30T06:02:49;9.50;;;2.00;;
77016;SDS011;65949;53.132;17.930;2023-09-30T06:05:17;9.10;;;2.00;;
77016;SDS011;65949;53.132;17.930;2023-09-30T06:07:45;10.30;;;2.90;;
77016;SDS011;65949;53.132;17.930;2023-09-30T06:10:12;11.40;;;2.40;;
77016;SDS011;65949;53.132;17.930;2023-09-30T06:12:42;8.70;;;1.80;;
77016;SDS011;65949;53.132;17.930;2023-09-30T06:15:09;9.50;;;1.70;;
77016;SDS011;65949;53.132;17.930;2023-09-30T06:17:36;10.10;;;2.00;;
77016;SDS011;65949;53.132;17.930;2023-09-30T06:20:06;7.30;;;2.10;;
77016;SDS011;65949;53.132;17.930;2023-09-30T06:22:35;9.90;;;1.80;;
77016;SDS011;65949;53.132;17.930;2023-09-30T06:25:02;11.90;;;2.40;;
77016;SDS011;65949;53.132;17.930;2023-09-30T06:27:30;10.80;;;2.00;;
77016;SDS011;65949;53.132;17.930;2023-09-30T06:29:57;9.30;;;2.40;;
77016;SDS011;65949;53.132;17.930;2023-09-30T06:32:24;8.30;;;1.80;;
77016;SDS011;65949;53.132;17.930;2023-09-30T06:34:50;9.40;;;1.80;;
77016;SDS011;65949;53.132;17.930;2023-09-30T06:37:17;10.60;;;2.40;;
77016;SDS011;65949;53.132;17.930;2023-09-30T06:39:44;9.70;;;1.80;;
77016;SDS011;65949;53.132;17.930;2023-09-30T06:42:11;10.50;;;2.50;;
77016;SDS011;65949;53.132;17.930;2023-09-30T06:44:38;10.80;;;1.90;;
77016;SDS011;65949;53.132;17.930;2023-09-30T06:47:04;11.60;;;2.00;;
77016;SDS011;65949;53.132;17.930;2023-09-30T06:49:34;9.60;;;1.70;;
77016;SDS011;65949;53.132;17.930;2023-09-30T06:52:01;9.00;;;2.10;;
77016;SDS011;65949;53.132;17.930;2023-09-30T06:54:30;8.10;;;1.80;;
77016;SDS011;65949;53.132;17.930;2023-09-30T06:56:57;8.80;;;1.60;;
77016;SDS011;65949;53.132;17.930;2023-09-30T06:59:24;9.80;;;2.00;;
77016;SDS011;65949;53.132;17.930;2023-09-30T07:01:51;10.60;;;2.00;;
77016;SDS011;65949;53.132;17.930;2023-09-30T07:04:18;8.90;;;2.00;;
77016;SDS011;65949;53.132;17.930;2023-09-30T07:06:44;9.30;;;1.90;;
77016;SDS011;65949;53.132;17.930;2023-09-30T07:09:11;9.80;;;2.20;;
77016;SDS011;65949;53.132;17.930;2023-09-30T07:11:38;8.80;;;2.00;;
77016;SDS011;65949;53.132;17.930;2023-09-30T07:14:05;9.50;;;1.60;;
77016;SDS011;65949;53.132;17.930;2023-09-30T07:16:31;9.00;;;2.10;;
77016;SDS011;65949;53.132;17.930;2023-09-30T07:18:58;8.80;;;1.90;;
77016;SDS011;65949;53.132;17.930;2023-09-30T07:21:25;10.50;;;2.00;;
77016;SDS011;65949;53.132;17.930;2023-09-30T07:23:51;11.60;;;2.10;;
77016;SDS011;65949;53.132;17.930;2023-09-30T07:26:22;9.90;;;1.70;;
77016;SDS011;65949;53.132;17.930;2023-09-30T07:28:50;10.30;;;2.00;;
77016;SDS011;65949;53.132;17.930;2023-09-30T07:31:17;9.20;;;2.10;;
77016;SDS011;65949;53.132;17.930;2023-09-30T07:33:43;10.90;;;2.60;;
77016;SDS011;65949;53.132;17.930;2023-09-30T07:36:10;10.50;;;1.90;;
77016;SDS011;65949;53.132;17.930;2023-09-30T07:38:36;8.20;;;1.70;;
77016;SDS011;65949;53.132;17.930;2023-09-30T07:41:03;12.00;;;2.10;;
77016;SDS011;65949;53.132;17.930;2023-09-30T07:43:31;9.90;;;1.60;;
77016;SDS011;65949;53.132;17.930;2023-09-30T07:45:58;14.80;;;2.20;;
77016;SDS011;65949;53.132;17.930;2023-09-30T07:48:25;8.50;;;1.70;;
77016;SDS011;65949;53.132;17.930;2023-09-30T07:50:52;9.10;;;2.10;;
77016;SDS011;65949;53.132;17.930;2023-09-30T07:53:19;11.80;;;2.10;;
77016;SDS011;65949;53.132;17.930;2023-09-30T07:55:45;10.10;;;2.60;;
77016;SDS011;65949;53.132;17.930;2023-09-30T07:58:12;10.20;;;1.80;;
77016;SDS011;65949;53.132;17.930;2023-09-30T08:00:38;14.40;;;2.60;;
77016;SDS011;65949;53.132;17.930;2023-09-30T08:03:05;9.30;;;1.90;;
77016;SDS011;65949;53.132;17.930;2023-09-30T08:05:32;9.90;;;2.00;;
77016;SDS011;65949;53.132;17.930;2023-09-30T08:07:59;8.80;;;2.00;;
77016;SDS011;65949;53.132;17.930;2023-09-30T08:10:27;11.70;;;2.00;;
77016;SDS011;65949;53.132;17.930;2023-09-30T08:12:56;12.20;;;1.80;;
77016;SDS011;65949;53.132;17.930;2023-09-30T08:15:24;10.50;;;1.90;;
77016;SDS011;65949;53.132;17.930;2023-09-30T08:17:51;11.60;;;2.10;;
77016;SDS011;65949;53.132;17.930;2023-09-30T08:20:18;10.30;;;2.70;;
77016;SDS011;65949;53.132;17.930;2023-09-30T08:22:45;11.70;;;2.30;;
77016;SDS011;65949;53.132;17.930;2023-09-30T08:25:12;11.10;;;1.90;;
77016;SDS011;65949;53.132;17.930;2023-09-30T08:27:38;10.40;;;2.30;;
77016;SDS011;65949;53.132;17.930;2023-09-30T08:30:06;7.70;;;1.70;;
77016;SDS011;65949;53.132;17.930;2023-09-30T08:32:34;12.30;;;2.60;;
77016;SDS011;65949;53.132;17.930;2023-09-30T08:35:02;11.20;;;2.10;;
77016;SDS011;65949;53.132;17.930;2023-09-30T08:37:29;12.00;;;2.40;;
77016;SDS011;65949;53.132;17.930;2023-09-30T08:39:57;10.10;;;2.10;;
77016;SDS011;65949;53.132;17.930;2023-09-30T08:42:24;12.20;;;2.10;;
77016;SDS011;65949;53.132;17.930;2023-09-30T08:44:58;10.50;;;2.10;;
77016;SDS011;65949;53.132;17.930;2023-09-30T08:47:28;10.30;;;2.50;;
77016;SDS011;65949;53.132;17.930;2023-09-30T08:49:56;12.00;;;2.10;;
77016;SDS011;65949;53.132;17.930;2023-09-30T08:52:33;9.30;;;1.80;;
77016;SDS011;65949;53.132;17.930;2023-09-30T08:55:00;11.90;;;2.40;;
77016;SDS011;65949;53.132;17.930;2023-09-30T08:57:27;12.20;;;2.30;;
77016;SDS011;65949;53.132;17.930;2023-09-30T08:59:55;12.20;;;2.30;;
77016;SDS011;65949;53.132;17.930;2023-09-30T09:02:22;10.80;;;1.90;;
77016;SDS011;65949;53.132;17.930;2023-09-30T09:04:49;7.40;;;1.60;;
77016;SDS011;65949;53.132;17.930;2023-09-30T09:07:15;10.70;;;2.00;;
77016;SDS011;65949;53.132;17.930;2023-09-30T09:09:47;10.40;;;2.10;;
77016;SDS011;65949;53.132;17.930;2023-09-30T09:12:29;14.40;;;2.70;;
77016;SDS011;65949;53.132;17.930;2023-09-30T09:14:56;9.60;;;1.90;;
77016;SDS011;65949;53.132;17.930;2023-09-30T09:17:22;9.50;;;1.60;;
77016;SDS011;65949;53.132;17.930;2023-09-30T09:19:58;11.90;;;2.20;;
77016;SDS011;65949;53.132;17.930;2023-09-30T09:22:42;9.90;;;2.00;;
77016;SDS011;65949;53.132;17.930;2023-09-30T09:25:10;12.70;;;2.00;;
77016;SDS011;65949;53.132;17.930;2023-09-30T09:27:37;10.10;;;2.20;;
77016;SDS011;65949;53.132;17.930;2023-09-30T09:30:19;11.90;;;2.20;;
77016;SDS011;65949;53.132;17.930;2023-09-30T09:35:24;10.10;;;2.30;;
77016;SDS011;65949;53.132;17.930;2023-09-30T09:38:04;12.90;;;2.90;;
77016;SDS011;65949;53.132;17.930;2023-09-30T09:40:35;11.40;;;1.80;;
77016;SDS011;65949;53.132;17.930;2023-09-30T09:43:06;10.10;;;2.00;;
77016;SDS011;65949;53.132;17.930;2023-09-30T09:45:34;12.20;;;2.40;;
77016;SDS011;65949;53.132;17.930;2023-09-30T09:48:02;12.80;;;2.50;;
77016;SDS011;65949;53.132;17.930;2023-09-30T09:50:31;11.40;;;2.10;;
77016;SDS011;65949;53.132;17.930;2023-09-30T09:53:02;8.80;;;1.90;;
77016;SDS011;65949;53.132;17.930;2023-09-30T09:55:31;8.90;;;2.00;;
77016;SDS011;65949;53.132;17.930;2023-09-30T09:57:59;11.90;;;2.60;;
77016;SDS011;65949;53.132;17.930;2023-09-30T10:00:29;11.80;;;2.90;;
77016;SDS011;65949;53.132;17.930;2023-09-30T10:02:57;10.50;;;2.60;;
77016;SDS011;65949;53.132;17.930;2023-09-30T10:05:25;12.00;;;1.70;;
77016;SDS011;65949;53.132;17.930;2023-09-30T10:07:53;9.30;;;1.90;;
77016;SDS011;65949;53.132;17.930;2023-09-30T10:10:22;12.00;;;2.20;;
77016;SDS011;65949;53.132;17.930;2023-09-30T10:12:51;9.40;;;2.50;;
77016;SDS011;65949;53.132;17.930;2023-09-30T10:20:30;9.80;;;2.10;;
77016;SDS011;65949;53.132;17.930;2023-09-30T10:28:38;10.60;;;1.90;;
77016;SDS011;65949;53.132;17.930;2023-09-30T10:31:11;10.70;;;2.10;;
77016;SDS011;65949;53.132;17.930;2023-09-30T10:36:44;8.40;;;2.00;;
77016;SDS011;65949;53.132;17.930;2023-09-30T10:39:13;12.50;;;2.30;;
77016;SDS011;65949;53.132;17.930;2023-09-30T10:49:47;12.10;;;2.00;;
77016;SDS011;65949;53.132;17.930;2023-09-30T10:52:21;9.70;;;2.20;;
77016;SDS011;65949;53.132;17.930;2023-09-30T10:54:51;7.80;;;1.70;;
77016;SDS011;65949;53.132;17.930;2023-09-30T10:57:27;13.70;;;2.20;;
77016;SDS011;65949;53.132;17.930;2023-09-30T11:02:48;9.00;;;1.70;;
77016;SDS011;65949;53.132;17.930;2023-09-30T11:05:19;9.90;;;1.80;;
77016;SDS011;65949;53.132;17.930;2023-09-30T11:07:48;8.20;;;1.90;;
77016;SDS011;65949;53.132;17.930;2023-09-30T11:10:17;13.00;;;2.10;;
77016;SDS011;65949;53.132;17.930;2023-09-30T11:12:57;9.20;;;2.00;;
77016;SDS011;65949;53.132;17.930;2023-09-30T11:15:24;10.30;;;2.00;;
77016;SDS011;65949;53.132;17.930;2023-09-30T11:17:52;10.90;;;2.00;;
77016;SDS011;65949;53.132;17.930;2023-09-30T11:20:18;11.30;;;1.90;;
77016;SDS011;65949;53.132;17.930;2023-09-30T11:22:46;10.10;;;1.70;;
77016;SDS011;65949;53.132;17.930;2023-09-30T11:25:16;9.30;;;1.80;;
77016;SDS011;65949;53.132;17.930;2023-09-30T11:27:44;11.10;;;2.00;;
77016;SDS011;65949;53.132;17.930;2023-09-30T11:30:11;8.50;;;1.80;;
77016;SDS011;65949;53.132;17.930;2023-09-30T11:32:39;7.80;;;1.70;;
77016;SDS011;65949;53.132;17.930;2023-09-30T11:35:09;9.40;;;1.70;;
77016;SDS011;65949;53.132;17.930;2023-09-30T11:37:42;8.80;;;1.80;;
77016;SDS011;65949;53.132;17.930;2023-09-30T11:40:12;11.80;;;1.80;;
77016;SDS011;65949;53.132;17.930;2023-09-30T11:42:40;15.30;;;2.20;;
77016;SDS011;65949;53.132;17.930;2023-09-30T11:45:20;10.20;;;2.00;;
77016;SDS011;65949;53.132;17.930;2023-09-30T11:47:48;9.70;;;1.70;;
77016;SDS011;65949;53.132;17.930;2023-09-30T11:50:15;8.70;;;1.80;;
77016;SDS011;65949;53.132;17.930;2023-09-30T11:52:43;11.40;;;1.90;;
77016;SDS011;65949;53.132;17.930;2023-09-30T11:55:13;8.50;;;1.70;;
77016;SDS011;65949;53.132;17.930;2023-09-30T11:57:39;12.10;;;1.90;;
77016;SDS011;65949;53.132;17.930;2023-09-30T12:00:07;10.30;;;1.80;;
77016;SDS011;65949;53.132;17.930;2023-09-30T12:02:39;11.80;;;2.00;;
77016;SDS011;65949;53.132;17.930;2023-09-30T12:05:07;9.90;;;1.90;;
77016;SDS011;65949;53.132;17.930;2023-09-30T12:07:37;9.20;;;1.70;;
77016;SDS011;65949;53.132;17.930;2023-09-30T12:10:07;7.20;;;1.70;;
77016;SDS011;65949;53.132;17.930;2023-09-30T12:12:35;8.90;;;2.10;;
77016;SDS011;65949;53.132;17.930;2023-09-30T12:15:01;10.20;;;1.80;;
77016;SDS011;65949;53.132;17.930;2023-09-30T12:17:29;7.60;;;1.80;;
77016;SDS011;65949;53.132;17.930;2023-09-30T12:19:55;7.70;;;1.50;;
77016;SDS011;65949;53.132;17.930;2023-09-30T12:22:22;9.40;;;2.10;;
77016;SDS011;65949;53.132;17.930;2023-09-30T12:24:48;9.20;;;2.20;;
77016;SDS011;65949;53.132;17.930;2023-09-30T12:27:15;10.80;;;1.80;;
77016;SDS011;65949;53.132;17.930;2023-09-30T12:29:43;10.30;;;1.80;;
77016;SDS011;65949;53.132;17.930;2023-09-30T12:32:10;7.40;;;1.60;;
77016;SDS011;65949;53.132;17.930;2023-09-30T12:34:37;9.40;;;2.00;;
77016;SDS011;65949;53.132;17.930;2023-09-30T12:37:03;8.50;;;2.20;;
77016;SDS011;65949;53.132;17.930;2023-09-30T12:39:30;6.90;;;1.60;;
77016;SDS011;65949;53.132;17.930;2023-09-30T12:41:59;8.30;;;1.70;;
77016;SDS011;65949;53.132;17.930;2023-09-30T12:44:26;8.50;;;1.70;;
77016;SDS011;65949;53.132;17.930;2023-09-30T12:46:52;9.70;;;1.80;;
77016;SDS011;65949;53.132;17.930;2023-09-30T12:49:19;7.50;;;1.80;;
77016;SDS011;65949;53.132;17.930;2023-09-30T12:51:46;9.60;;;1.70;;
77016;SDS011;65949;53.132;17.930;2023-09-30T12:54:13;8.80;;;1.70;;
77016;SDS011;65949;53.132;17.930;2023-09-30T12:56:41;6.50;;;2.00;;
77016;SDS011;65949;53.132;17.930;2023-09-30T12:59:07;10.10;;;1.60;;
77016;SDS011;65949;53.132;17.930;2023-09-30T13:01:34;9.80;;;1.90;;
77016;SDS011;65949;53.132;17.930;2023-09-30T13:04:00;9.10;;;2.60;;
77016;SDS011;65949;53.132;17.930;2023-09-30T13:06:28;9.10;;;2.30;;
77016;SDS011;65949;53.132;17.930;2023-09-30T13:08:55;8.50;;;1.40;;
77016;SDS011;65949;53.132;17.930;2023-09-30T13:11:22;10.30;;;2.20;;
77016;SDS011;65949;53.132;17.930;2023-09-30T13:13:48;9.00;;;1.90;;
77016;SDS011;65949;53.132;17.930;2023-09-30T13:16:15;8.10;;;1.80;;
77016;SDS011;65949;53.132;17.930;2023-09-30T13:18:41;9.30;;;1.70;;
77016;SDS011;65949;53.132;17.930;2023-09-30T13:21:08;9.50;;;1.90;;
77016;SDS011;65949;53.132;17.930;2023-09-30T13:23:38;7.70;;;1.90;;
77016;SDS011;65949;53.132;17.930;2023-09-30T13:26:04;11.90;;;1.80;;
77016;SDS011;65949;53.132;17.930;2023-09-30T13:28:31;10.60;;;1.50;;
77016;SDS011;65949;53.132;17.930;2023-09-30T13:30:58;9.40;;;1.60;;
77016;SDS011;65949;53.132;17.930;2023-09-30T13:33:24;9.50;;;2.10;;
77016;SDS011;65949;53.132;17.930;2023-09-30T13:35:51;7.20;;;1.70;;
77016;SDS011;65949;53.132;17.930;2023-09-30T13:38:17;10.20;;;2.00;;
77016;SDS011;65949;53.132;17.930;2023-09-30T13:40:44;10.30;;;2.00;;
77016;SDS011;65949;53.132;17.930;2023-09-30T13:43:12;10.40;;;1.50;;
77016;SDS011;65949;53.132;17.930;2023-09-30T13:45:39;10.70;;;2.40;;
77016;SDS011;65949;53.132;17.930;2023-09-30T13:48:06;7.40;;;2.00;;
77016;SDS011;65949;53.132;17.930;2023-09-30T13:50:33;10.50;;;2.00;;
77016;SDS011;65949;53.132;17.930;2023-09-30T13:53:00;8.00;;;1.80;;
77016;SDS011;65949;53.132;17.930;2023-09-30T13:55:27;9.10;;;2.60;;
77016;SDS011;65949;53.132;17.930;2023-09-30T13:57:54;9.60;;;1.90;;
77016;SDS011;65949;53.132;17.930;2023-09-30T14:00:21;13.70;;;1.90;;
77016;SDS011;65949;53.132;17.930;2023-09-30T14:02:47;7.00;;;1.50;;
77016;SDS011;65949;53.132;17.930;2023-09-30T14:05:14;8.00;;;1.70;;
77016;SDS011;65949;53.132;17.930;2023-09-30T14:07:41;7.60;;;1.80;;
77016;SDS011;65949;53.132;17.930;2023-09-30T14:10:08;10.80;;;2.50;;
77016;SDS011;65949;53.132;17.930;2023-09-30T14:12:36;8.20;;;1.80;;
77016;SDS011;65949;53.132;17.930;2023-09-30T14:15:05;7.60;;;1.40;;
77016;SDS011;65949;53.132;17.930;2023-09-30T14:17:33;7.30;;;1.80;;
77016;SDS011;65949;53.132;17.930;2023-09-30T14:20:01;7.80;;;1.70;;
77016;SDS011;65949;53.132;17.930;2023-09-30T14:22:28;10.00;;;2.10;;
77016;SDS011;65949;53.132;17.930;2023-09-30T14:24:55;9.00;;;1.90;;
77016;SDS011;65949;53.132;17.930;2023-09-30T14:27:22;12.50;;;2.10;;
77016;SDS011;65949;53.132;17.930;2023-09-30T14:29:48;10.00;;;1.60;;
77016;SDS011;65949;53.132;17.930;2023-09-30T14:32:15;9.30;;;1.70;;
77016;SDS011;65949;53.132;17.930;2023-09-30T14:34:42;9.70;;;1.80;;
77016;SDS011;65949;53.132;17.930;2023-09-30T14:37:08;12.00;;;2.50;;
77016;SDS011;65949;53.132;17.930;2023-09-30T14:39:36;7.70;;;1.50;;
77016;SDS011;65949;53.132;17.930;2023-09-30T14:42:03;7.70;;;1.40;;
77016;SDS011;65949;53.132;17.930;2023-09-30T14:44:29;10.10;;;3.50;;
77016;SDS011;65949;53.132;17.930;2023-09-30T14:46:56;14.50;;;6.00;;
77016;SDS011;65949;53.132;17.930;2023-09-30T14:49:23;9.20;;;1.90;;
77016;SDS011;65949;53.132;17.930;2023-09-30T14:51:50;9.90;;;2.10;;
77016;SDS011;65949;53.132;17.930;2023-09-30T14:54:17;8.70;;;1.60;;
77016;SDS011;65949;53.132;17.930;2023-09-30T14:56:43;8.10;;;1.50;;